sensor_id;sensor_type;location;lat;lon;timestamp;pressure;altitude;pressure_sealevel;temperature;humidity
12949;BME280;6539;49.476;8.484;2022-07-29T00:00:52;100258.47;;;25.68;39.93
12949;BME280;6539;49.476;8.484;2022-07-29T00:03:17;100254.66;;;25.71;40.21
12949;BME280;6539;49.476;8.484;2022-07-29T00:05:43;100253.13;;;25.70;40.43
12949;BME280;6539;49.476;8.484;2022-07-29T00:08:11;100260.78;;;25.64;39.59
12949;BME280;6539;49.476;8.484;2022-07-29T00:10:40;100252.09;;;25.62;39.73
12949;BME280;6539;49.476;8.484;2022-07-29T00:13:08;100253.13;;;25.59;39.64
12949;BME280;6539;49.476;8.484;2022-07-29T00:15:34;100253.13;;;25.48;39.82
12949;BME280;6539;49.476;8.484;2022-07-29T00:17:59;100249.03;;;25.49;39.83
12949;BME280;6539;49.476;8.484;2022-07-29T00:20:25;100245.22;;;25.52;40.14
12949;BME280;6539;49.476;8.484;2022-07-29T00:22:53;100251.34;;;25.56;40.26
12949;BME280;6539;49.476;8.484;2022-07-29T00:25:21;100248.53;;;25.51;40.00
12949;BME280;6539;49.476;8.484;2022-07-29T00:27:50;100247.75;;;25.56;40.34
12949;BME280;6539;49.476;8.484;2022-07-29T00:30:18;100249.28;;;25.57;40.49
12949;BME280;6539;49.476;8.484;2022-07-29T00:32:44;100248.28;;;25.54;40.31
12949;BME280;6539;49.476;8.484;2022-07-29T00:35:09;100245.97;;;25.53;40.35
12949;BME280;6539;49.476;8.484;2022-07-29T00:37:56;100234.22;;;25.54;40.48
12949;BME280;6539;49.476;8.484;2022-07-29T00:40:26;100233.19;;;25.57;40.75
12949;BME280;6539;49.476;8.484;2022-07-29T00:42:54;100234.47;;;25.56;40.80
12949;BME280;6539;49.476;8.484;2022-07-29T00:45:20;100239.06;;;25.54;40.96
12949;BME280;6539;49.476;8.484;2022-07-29T00:47:48;100230.88;;;25.56;41.08
12949;BME280;6539;49.476;8.484;2022-07-29T00:50:14;100239.31;;;25.56;41.11
12949;BME280;6539;49.476;8.484;2022-07-29T00:52:41;100240.88;;;25.57;41.11
12949;BME280;6539;49.476;8.484;2022-07-29T00:55:15;100238.28;;;25.53;41.38
12949;BME280;6539;49.476;8.484;2022-07-29T00:57:42;100233.72;;;25.50;41.33
12949;BME280;6539;49.476;8.484;2022-07-29T01:00:25;100233.69;;;25.45;41.43
12949;BME280;6539;49.476;8.484;2022-07-29T01:02:52;100225.50;;;25.41;41.60
12949;BME280;6539;49.476;8.484;2022-07-29T01:05:24;100223.97;;;25.40;41.72
12949;BME280;6539;49.476;8.484;2022-07-29T01:07:53;100225.25;;;25.39;41.76
12949;BME280;6539;49.476;8.484;2022-07-29T01:10:23;100225.00;;;25.37;41.41
12949;BME280;6539;49.476;8.484;2022-07-29T01:12:55;100225.00;;;25.37;41.23
12949;BME280;6539;49.476;8.484;2022-07-29T01:15:24;100224.22;;;25.37;41.07
12949;BME280;6539;49.476;8.484;2022-07-29T01:18:20;100215.53;;;25.35;40.79
12949;BME280;6539;49.476;8.484;2022-07-29T01:29:48;100202.50;;;25.10;41.17
12949;BME280;6539;49.476;8.484;2022-07-29T01:32:20;100197.66;;;25.05;40.99
12949;BME280;6539;49.476;8.484;2022-07-29T01:38:10;100210.41;;;24.94;40.79
12949;BME280;6539;49.476;8.484;2022-07-29T01:40:51;100206.84;;;24.88;39.94
12949;BME280;6539;49.476;8.484;2022-07-29T01:43:34;100212.16;;;24.81;40.29
12949;BME280;6539;49.476;8.484;2022-07-29T01:46:11;100201.72;;;24.81;40.26
12949;BME280;6539;49.476;8.484;2022-07-29T01:49:00;100203.22;;;24.82;40.07
12949;BME280;6539;49.476;8.484;2022-07-29T01:51:47;100201.94;;;24.78;39.66
12949;BME280;6539;49.476;8.484;2022-07-29T01:54:42;100208.06;;;24.76;39.72
12949;BME280;6539;49.476;8.484;2022-07-29T01:57:15;100210.63;;;24.74;39.80
12949;BME280;6539;49.476;8.484;2022-07-29T01:59:48;100193.25;;;24.76;39.63
12949;BME280;6539;49.476;8.484;2022-07-29T02:02:21;100190.16;;;24.74;39.33
12949;BME280;6539;49.476;8.484;2022-07-29T02:04:54;100198.59;;;24.74;39.26
12949;BME280;6539;49.476;8.484;2022-07-29T02:07:23;100198.34;;;24.72;39.49
12949;BME280;6539;49.476;8.484;2022-07-29T02:09:51;100195.00;;;24.68;39.38
12949;BME280;6539;49.476;8.484;2022-07-29T02:12:22;100198.84;;;24.65;39.41
12949;BME280;6539;49.476;8.484;2022-07-29T02:14:53;100196.03;;;24.65;39.44
12949;BME280;6539;49.476;8.484;2022-07-29T02:17:35;100204.19;;;24.63;39.40
12949;BME280;6539;49.476;8.484;2022-07-29T02:20:05;100199.59;;;24.60;39.54
12949;BME280;6539;49.476;8.484;2022-07-29T02:22:37;100197.28;;;24.53;39.42
12949;BME280;6539;49.476;8.484;2022-07-29T02:25:06;100198.81;;;24.54;39.46
12949;BME280;6539;49.476;8.484;2022-07-29T02:27:37;100198.81;;;24.54;39.23
12949;BME280;6539;49.476;8.484;2022-07-29T02:30:04;100192.94;;;24.52;39.21
12949;BME280;6539;49.476;8.484;2022-07-29T02:32:35;100191.41;;;24.51;39.12
12949;BME280;6539;49.476;8.484;2022-07-29T02:35:04;100203.13;;;24.49;38.88
12949;BME280;6539;49.476;8.484;2022-07-29T02:37:31;100192.13;;;24.46;39.04
12949;BME280;6539;49.476;8.484;2022-07-29T02:39:58;100200.56;;;24.46;38.87
12949;BME280;6539;49.476;8.484;2022-07-29T02:42:30;100205.38;;;24.40;39.15
12949;BME280;6539;49.476;8.484;2022-07-29T02:45:03;100201.06;;;24.39;39.27
12949;BME280;6539;49.476;8.484;2022-07-29T02:47:50;100200.03;;;24.42;39.19
12949;BME280;6539;49.476;8.484;2022-07-29T02:50:37;100197.44;;;24.33;38.93
12949;BME280;6539;49.476;8.484;2022-07-29T02:53:20;100198.72;;;24.32;39.38
12949;BME280;6539;49.476;8.484;2022-07-29T02:56:02;100202.06;;;24.36;39.31
12949;BME280;6539;49.476;8.484;2022-07-29T02:58:49;100203.63;;;24.37;39.32
12949;BME280;6539;49.476;8.484;2022-07-29T03:01:32;100194.41;;;24.36;39.22
12949;BME280;6539;49.476;8.484;2022-07-29T03:04:06;100194.66;;;24.33;39.46
12949;BME280;6539;49.476;8.484;2022-07-29T03:06:37;100189.53;;;24.31;39.62
12949;BME280;6539;49.476;8.484;2022-07-29T03:09:11;100194.13;;;24.29;39.40
12949;BME280;6539;49.476;8.484;2022-07-29T03:11:43;100185.69;;;24.29;39.49
12949;BME280;6539;49.476;8.484;2022-07-29T03:14:09;100192.88;;;24.30;39.42
12949;BME280;6539;49.476;8.484;2022-07-29T03:16:38;100200.75;;;24.26;39.65
12949;BME280;6539;49.476;8.484;2022-07-29T03:19:07;100191.81;;;24.21;39.87
12949;BME280;6539;49.476;8.484;2022-07-29T03:21:33;100195.38;;;24.16;40.02
12949;BME280;6539;49.476;8.484;2022-07-29T03:24:02;100201.97;;;24.13;40.15
12949;BME280;6539;49.476;8.484;2022-07-29T03:26:27;100199.16;;;24.13;40.39
12949;BME280;6539;49.476;8.484;2022-07-29T03:28:54;100196.09;;;24.11;40.30
12949;BME280;6539;49.476;8.484;2022-07-29T03:31:24;100202.47;;;24.12;40.38
12949;BME280;6539;49.476;8.484;2022-07-29T03:33:52;100198.63;;;24.09;40.97
12949;BME280;6539;49.476;8.484;2022-07-29T03:36:21;100196.09;;;24.11;40.76
12949;BME280;6539;49.476;8.484;2022-07-29T03:38:48;100198.16;;;24.11;40.83
12949;BME280;6539;49.476;8.484;2022-07-29T03:41:18;100190.47;;;24.11;40.83
12949;BME280;6539;49.476;8.484;2022-07-29T03:43:48;100196.34;;;24.13;40.86
12949;BME280;6539;49.476;8.484;2022-07-29T03:46:17;100198.41;;;24.13;40.92
12949;BME280;6539;49.476;8.484;2022-07-29T03:48:50;100194.56;;;24.10;41.01
12949;BME280;6539;49.476;8.484;2022-07-29T03:51:18;100196.09;;;24.11;41.28
12949;BME280;6539;49.476;8.484;2022-07-29T03:53:44;100200.44;;;24.12;41.38
12949;BME280;6539;49.476;8.484;2022-07-29T03:56:10;100202.50;;;24.17;41.43
12949;BME280;6539;49.476;8.484;2022-07-29T03:58:39;100202.22;;;24.15;41.50
12949;BME280;6539;49.476;8.484;2022-07-29T04:01:09;100203.00;;;24.16;41.60
12949;BME280;6539;49.476;8.484;2022-07-29T04:03:35;100199.16;;;24.13;41.89
12949;BME280;6539;49.476;8.484;2022-07-29T04:06:06;100205.28;;;24.12;42.19
12949;BME280;6539;49.476;8.484;2022-07-29T04:08:35;100207.31;;;24.11;42.28
12949;BME280;6539;49.476;8.484;2022-07-29T04:11:04;100206.00;;;24.07;42.32
12949;BME280;6539;49.476;8.484;2022-07-29T04:13:33;100205.28;;;24.06;42.28
12949;BME280;6539;49.476;8.484;2022-07-29T04:15:59;100196.78;;;24.01;42.62
12949;BME280;6539;49.476;8.484;2022-07-29T04:18:28;100208.00;;;24.01;42.76
12949;BME280;6539;49.476;8.484;2022-07-29T04:20:56;100208.00;;;24.01;42.77
12949;BME280;6539;49.476;8.484;2022-07-29T04:23:29;100212.56;;;23.98;43.07
12949;BME280;6539;49.476;8.484;2022-07-29T04:25:58;100207.50;;;24.02;43.00
12949;BME280;6539;49.476;8.484;2022-07-29T04:28:26;100205.19;;;24.01;43.15
12949;BME280;6539;49.476;8.484;2022-07-29T04:30:54;100206.28;;;24.09;43.18
12949;BME280;6539;49.476;8.484;2022-07-29T04:33:22;100214.47;;;24.12;43.14
12949;BME280;6539;49.476;8.484;2022-07-29T04:35:48;100208.88;;;24.12;43.14
12949;BME280;6539;49.476;8.484;2022-07-29T04:38:16;100220.59;;;24.16;43.01
12949;BME280;6539;49.476;8.484;2022-07-29T04:40:44;100217.28;;;24.18;43.32
12949;BME280;6539;49.476;8.484;2022-07-29T04:43:10;100219.63;;;24.19;43.48
12949;BME280;6539;49.476;8.484;2022-07-29T04:45:35;100228.78;;;24.20;43.48
12949;BME280;6539;49.476;8.484;2022-07-29T04:48:01;100219.63;;;24.19;43.30
12949;BME280;6539;49.476;8.484;2022-07-29T04:50:27;100223.94;;;24.20;43.37
12949;BME280;6539;49.476;8.484;2022-07-29T04:52:53;100225.75;;;24.23;43.44
12949;BME280;6539;49.476;8.484;2022-07-29T04:55:18;100222.72;;;24.33;43.35
12949;BME280;6539;49.476;8.484;2022-07-29T04:57:44;100219.94;;;24.38;43.15
12949;BME280;6539;49.476;8.484;2022-07-29T05:00:13;100212.28;;;24.39;43.36
12949;BME280;6539;49.476;8.484;2022-07-29T05:02:39;100216.09;;;24.36;43.67
12949;BME280;6539;49.476;8.484;2022-07-29T05:05:05;100220.72;;;24.39;43.53
12949;BME280;6539;49.476;8.484;2022-07-29T05:07:31;100209.75;;;24.46;43.84
12949;BME280;6539;49.476;8.484;2022-07-29T05:09:59;100212.59;;;24.57;43.72
12949;BME280;6539;49.476;8.484;2022-07-29T05:12:25;100217.72;;;24.64;43.63
12949;BME280;6539;49.476;8.484;2022-07-29T05:14:52;100219.59;;;24.84;43.02
12949;BME280;6539;49.476;8.484;2022-07-29T05:17:20;100223.16;;;24.95;42.81
12949;BME280;6539;49.476;8.484;2022-07-29T05:19:48;100228.03;;;25.01;42.72
12949;BME280;6539;49.476;8.484;2022-07-29T05:22:16;100232.38;;;25.07;42.42
12949;BME280;6539;49.476;8.484;2022-07-29T05:24:44;100229.84;;;25.20;41.93
12949;BME280;6539;49.476;8.484;2022-07-29T05:27:12;100226.53;;;25.27;41.86
12949;BME280;6539;49.476;8.484;2022-07-29T05:29:39;100222.44;;;25.39;41.55
12949;BME280;6539;49.476;8.484;2022-07-29T05:32:07;100223.50;;;25.42;41.44
12949;BME280;6539;49.476;8.484;2022-07-29T05:34:38;100235.25;;;25.46;41.08
12949;BME280;6539;49.476;8.484;2022-07-29T05:37:04;100233.97;;;25.47;41.04
12949;BME280;6539;49.476;8.484;2022-07-29T05:39:29;100229.34;;;25.49;40.92
12949;BME280;6539;49.476;8.484;2022-07-29T05:41:57;100235.75;;;25.50;40.95
12949;BME280;6539;49.476;8.484;2022-07-29T05:44:23;100239.34;;;25.50;40.75
12949;BME280;6539;49.476;8.484;2022-07-29T05:46:51;100233.44;;;25.54;40.58
12949;BME280;6539;49.476;8.484;2022-07-29T05:49:17;100233.69;;;25.56;40.69
12949;BME280;6539;49.476;8.484;2022-07-29T05:51:43;100235.47;;;25.53;40.76
12949;BME280;6539;49.476;8.484;2022-07-29T05:54:11;100238.03;;;25.51;40.75
12949;BME280;6539;49.476;8.484;2022-07-29T05:56:37;100241.91;;;25.48;40.67
12949;BME280;6539;49.476;8.484;2022-07-29T05:59:03;100247.50;;;25.48;40.55
12949;BME280;6539;49.476;8.484;2022-07-29T06:01:31;100253.66;;;25.52;40.79
12949;BME280;6539;49.476;8.484;2022-07-29T06:03:57;100255.94;;;25.59;40.45
12949;BME280;6539;49.476;8.484;2022-07-29T06:06:23;100255.69;;;25.57;40.90
12949;BME280;6539;49.476;8.484;2022-07-29T06:08:53;100260.28;;;25.60;41.00
12949;BME280;6539;49.476;8.484;2022-07-29T06:11:21;100261.81;;;25.67;41.29
12949;BME280;6539;49.476;8.484;2022-07-29T06:13:49;100263.84;;;25.66;41.32
12949;BME280;6539;49.476;8.484;2022-07-29T06:16:15;100264.38;;;25.59;43.72
12949;BME280;6539;49.476;8.484;2022-07-29T06:18:43;100261.56;;;25.43;43.41
12949;BME280;6539;49.476;8.484;2022-07-29T06:21:09;100258.50;;;25.46;44.11
12949;BME280;6539;49.476;8.484;2022-07-29T06:23:39;100267.94;;;25.38;44.38
12949;BME280;6539;49.476;8.484;2022-07-29T06:26:07;100267.69;;;25.63;47.05
12949;BME280;6539;49.476;8.484;2022-07-29T06:28:34;100267.16;;;25.82;44.58
12949;BME280;6539;49.476;8.484;2022-07-29T06:31:03;100275.56;;;26.04;44.74
12949;BME280;6539;49.476;8.484;2022-07-29T06:33:28;100262.00;;;26.24;44.74
12949;BME280;6539;49.476;8.484;2022-07-29T06:35:54;100266.22;;;26.53;44.98
12949;BME280;6539;49.476;8.484;2022-07-29T06:38:21;100263.34;;;26.64;41.87
12949;BME280;6539;49.476;8.484;2022-07-29T06:40:47;100260.59;;;26.53;41.67
12949;BME280;6539;49.476;8.484;2022-07-29T06:43:37;100265.44;;;26.53;43.26
12949;BME280;6539;49.476;8.484;2022-07-29T06:46:09;100267.41;;;26.74;42.64
12949;BME280;6539;49.476;8.484;2022-07-29T06:48:35;100275.56;;;26.83;42.22
12949;BME280;6539;49.476;8.484;2022-07-29T06:51:03;100279.53;;;27.04;43.00
12949;BME280;6539;49.476;8.484;2022-07-29T06:53:31;100276.56;;;27.27;41.26
12949;BME280;6539;49.476;8.484;2022-07-29T06:55:58;100284.47;;;27.34;41.18
12949;BME280;6539;49.476;8.484;2022-07-29T06:58:26;100283.72;;;27.39;40.65
12949;BME280;6539;49.476;8.484;2022-07-29T07:00:55;100278.13;;;27.28;41.19
12949;BME280;6539;49.476;8.484;2022-07-29T07:03:24;100289.84;;;27.43;41.13
12949;BME280;6539;49.476;8.484;2022-07-29T07:05:52;100291.63;;;27.75;41.29
12949;BME280;6539;49.476;8.484;2022-07-29T07:08:18;100294.94;;;28.04;40.33
12949;BME280;6539;49.476;8.484;2022-07-29T07:10:45;100292.06;;;28.09;40.65
12949;BME280;6539;49.476;8.484;2022-07-29T07:13:13;100288.53;;;28.27;40.29
12949;BME280;6539;49.476;8.484;2022-07-29T07:15:44;100295.81;;;28.41;39.65
12949;BME280;6539;49.476;8.484;2022-07-29T07:18:09;100292.88;;;28.28;39.57
12949;BME280;6539;49.476;8.484;2022-07-29T07:20:38;100295.44;;;28.08;39.09
12949;BME280;6539;49.476;8.484;2022-07-29T07:23:03;100301.44;;;27.93;39.94
12949;BME280;6539;49.476;8.484;2022-07-29T07:25:32;100304.09;;;27.85;41.04
12949;BME280;6539;49.476;8.484;2022-07-29T07:27:58;100304.63;;;28.08;40.73
12949;BME280;6539;49.476;8.484;2022-07-29T07:30:24;100305.25;;;28.01;41.52
12949;BME280;6539;49.476;8.484;2022-07-29T07:32:53;100301.94;;;28.45;40.46
12949;BME280;6539;49.476;8.484;2022-07-29T07:35:21;100304.81;;;28.64;40.45
12949;BME280;6539;49.476;8.484;2022-07-29T07:37:48;100305.75;;;28.91;38.37
12949;BME280;6539;49.476;8.484;2022-07-29T07:40:18;100308.13;;;28.87;38.53
12949;BME280;6539;49.476;8.484;2022-07-29T07:42:44;100304.34;;;28.60;39.62
12949;BME280;6539;49.476;8.484;2022-07-29T07:45:13;100302.91;;;28.29;39.07
12949;BME280;6539;49.476;8.484;2022-07-29T07:47:41;100306.75;;;28.02;40.35
12949;BME280;6539;49.476;8.484;2022-07-29T07:50:10;100302.19;;;27.29;42.09
12949;BME280;6539;49.476;8.484;2022-07-29T07:52:51;100312.56;;;27.15;43.12
12949;BME280;6539;49.476;8.484;2022-07-29T07:55:20;100297.69;;;27.14;42.46
12949;BME280;6539;49.476;8.484;2022-07-29T07:57:48;100306.63;;;27.18;42.55
12949;BME280;6539;49.476;8.484;2022-07-29T08:00:16;100305.31;;;27.19;42.65
12949;BME280;6539;49.476;8.484;2022-07-29T08:02:42;100303.34;;;27.09;42.75
12949;BME280;6539;49.476;8.484;2022-07-29T08:05:09;100310.53;;;27.04;43.20
12949;BME280;6539;49.476;8.484;2022-07-29T08:07:39;100309.31;;;27.00;43.19
12949;BME280;6539;49.476;8.484;2022-07-29T08:10:05;100294.53;;;26.83;44.25
12949;BME280;6539;49.476;8.484;2022-07-29T08:12:33;100307.88;;;26.66;44.73
12949;BME280;6539;49.476;8.484;2022-07-29T08:14:59;100309.97;;;26.60;44.51
12949;BME280;6539;49.476;8.484;2022-07-29T08:17:25;100304.44;;;26.32;46.20
12949;BME280;6539;49.476;8.484;2022-07-29T08:19:54;100302.91;;;26.25;46.29
12949;BME280;6539;49.476;8.484;2022-07-29T08:22:22;100303.66;;;26.37;45.54
12949;BME280;6539;49.476;8.484;2022-07-29T08:24:48;100308.22;;;26.51;45.92
12949;BME280;6539;49.476;8.484;2022-07-29T08:27:22;100309.09;;;26.92;46.07
12949;BME280;6539;49.476;8.484;2022-07-29T08:29:48;100306.16;;;27.50;44.91
12949;BME280;6539;49.476;8.484;2022-07-29T08:32:14;100319.47;;;27.84;42.92
12949;BME280;6539;49.476;8.484;2022-07-29T08:34:47;100321.66;;;27.73;43.53
12949;BME280;6539;49.476;8.484;2022-07-29T08:37:12;100318.28;;;28.04;43.64
12949;BME280;6539;49.476;8.484;2022-07-29T08:39:38;100320.44;;;28.22;41.75
12949;BME280;6539;49.476;8.484;2022-07-29T08:42:07;100318.34;;;28.47;41.12
12949;BME280;6539;49.476;8.484;2022-07-29T08:44:33;100320.78;;;28.37;42.62
12949;BME280;6539;49.476;8.484;2022-07-29T08:46:59;100314.94;;;28.30;42.13
12949;BME280;6539;49.476;8.484;2022-07-29T08:49:27;100319.41;;;28.20;42.67
12949;BME280;6539;49.476;8.484;2022-07-29T08:51:58;100320.31;;;28.33;42.69
12949;BME280;6539;49.476;8.484;2022-07-29T08:54:24;100324.75;;;28.47;42.37
12949;BME280;6539;49.476;8.484;2022-07-29T08:56:54;100319.41;;;28.44;41.74
12949;BME280;6539;49.476;8.484;2022-07-29T08:59:24;100324.00;;;28.47;42.21
12949;BME280;6539;49.476;8.484;2022-07-29T09:01:54;100329.88;;;28.01;43.17
12949;BME280;6539;49.476;8.484;2022-07-29T09:04:30;100323.22;;;27.68;44.05
12949;BME280;6539;49.476;8.484;2022-07-29T09:07:00;100320.94;;;27.67;44.29
12949;BME280;6539;49.476;8.484;2022-07-29T09:09:33;100319.63;;;27.68;44.75
12949;BME280;6539;49.476;8.484;2022-07-29T09:12:00;100310.66;;;27.99;43.44
12949;BME280;6539;49.476;8.484;2022-07-29T09:14:26;100314.78;;;28.22;42.70
12949;BME280;6539;49.476;8.484;2022-07-29T09:16:53;100318.34;;;28.47;42.29
12949;BME280;6539;49.476;8.484;2022-07-29T09:19:25;100323.94;;;28.77;42.11
12949;BME280;6539;49.476;8.484;2022-07-29T09:21:52;100322.63;;;29.15;39.74
12949;BME280;6539;49.476;8.484;2022-07-29T09:24:46;100313.66;;;29.48;40.06
12949;BME280;6539;49.476;8.484;2022-07-29T09:27:25;100318.13;;;29.44;40.05
12949;BME280;6539;49.476;8.484;2022-07-29T09:30:08;100320.28;;;29.69;38.22
12949;BME280;6539;49.476;8.484;2022-07-29T09:32:59;100315.56;;;29.90;38.64
12949;BME280;6539;49.476;8.484;2022-07-29T09:35:28;100319.03;;;29.83;38.67
12949;BME280;6539;49.476;8.484;2022-07-29T09:37:55;100312.81;;;29.85;38.29
12949;BME280;6539;49.476;8.484;2022-07-29T09:40:27;100310.34;;;29.94;38.59
12949;BME280;6539;49.476;8.484;2022-07-29T09:42:54;100321.91;;;30.09;37.26
12949;BME280;6539;49.476;8.484;2022-07-29T09:45:33;100319.53;;;30.27;37.57
12949;BME280;6539;49.476;8.484;2022-07-29T09:48:13;100324.94;;;29.98;38.13
12949;BME280;6539;49.476;8.484;2022-07-29T09:50:43;100311.31;;;29.84;37.70
12949;BME280;6539;49.476;8.484;2022-07-29T09:53:29;100312.63;;;29.32;38.38
12949;BME280;6539;49.476;8.484;2022-07-29T09:55:58;100313.56;;;29.22;38.56
12949;BME280;6539;49.476;8.484;2022-07-29T09:58:26;100316.41;;;29.54;39.12
12949;BME280;6539;49.476;8.484;2022-07-29T10:00:56;100310.88;;;29.80;38.10
12949;BME280;6539;49.476;8.484;2022-07-29T10:03:22;100316.81;;;30.08;37.43
12949;BME280;6539;49.476;8.484;2022-07-29T10:06:11;100312.78;;;30.30;37.10
12949;BME280;6539;49.476;8.484;2022-07-29T10:08:41;100310.41;;;30.47;36.25
12949;BME280;6539;49.476;8.484;2022-07-29T10:11:13;100307.16;;;30.56;36.37
12949;BME280;6539;49.476;8.484;2022-07-29T10:13:47;100306.56;;;30.70;36.26
12949;BME280;6539;49.476;8.484;2022-07-29T10:16:15;100312.53;;;30.93;35.81
12949;BME280;6539;49.476;8.484;2022-07-29T10:18:43;100305.53;;;31.07;34.96
12949;BME280;6539;49.476;8.484;2022-07-29T10:21:13;100299.94;;;31.15;34.88
12949;BME280;6539;49.476;8.484;2022-07-29T10:23:45;100299.25;;;31.22;35.12
12949;BME280;6539;49.476;8.484;2022-07-29T10:26:11;100306.50;;;31.10;34.70
12949;BME280;6539;49.476;8.484;2022-07-29T10:28:37;100302.53;;;30.79;34.81
12949;BME280;6539;49.476;8.484;2022-07-29T10:31:06;100301.00;;;30.12;35.98
12949;BME280;6539;49.476;8.484;2022-07-29T10:39:33;100295.84;;;29.53;37.44
12949;BME280;6539;49.476;8.484;2022-07-29T10:42:21;100295.50;;;29.44;37.53
12949;BME280;6539;49.476;8.484;2022-07-29T10:44:54;100291.44;;;29.39;37.48
12949;BME280;6539;49.476;8.484;2022-07-29T10:47:24;100293.72;;;29.40;37.72
12949;BME280;6539;49.476;8.484;2022-07-29T10:50:03;100294.41;;;29.47;37.26
12949;BME280;6539;49.476;8.484;2022-07-29T10:52:53;100298.88;;;29.23;37.39
12949;BME280;6539;49.476;8.484;2022-07-29T10:55:40;100290.09;;;29.27;37.65
12949;BME280;6539;49.476;8.484;2022-07-29T10:58:22;100289.97;;;29.51;37.70
12949;BME280;6539;49.476;8.484;2022-07-29T11:00:51;100292.66;;;29.75;37.23
12949;BME280;6539;49.476;8.484;2022-07-29T11:03:46;100289.88;;;29.88;37.19
12949;BME280;6539;49.476;8.484;2022-07-29T11:06:13;100283.56;;;29.95;36.44
12949;BME280;6539;49.476;8.484;2022-07-29T11:08:39;100283.69;;;30.29;37.13
12949;BME280;6539;49.476;8.484;2022-07-29T11:13:52;100267.88;;;30.86;34.76
12949;BME280;6539;49.476;8.484;2022-07-29T11:16:21;100273.53;;;30.86;35.06
12949;BME280;6539;49.476;8.484;2022-07-29T11:21:44;100265.72;;;30.53;35.81
12949;BME280;6539;49.476;8.484;2022-07-29T11:24:31;100267.13;;;30.59;35.53
12949;BME280;6539;49.476;8.484;2022-07-29T11:27:14;100264.34;;;30.80;34.96
12949;BME280;6539;49.476;8.484;2022-07-29T11:29:53;100265.09;;;30.80;34.95
12949;BME280;6539;49.476;8.484;2022-07-29T11:32:22;100269.59;;;30.76;34.81
12949;BME280;6539;49.476;8.484;2022-07-29T11:35:22;100271.72;;;30.62;34.56
12949;BME280;6539;49.476;8.484;2022-07-29T11:38:26;100262.44;;;30.49;35.25
12949;BME280;6539;49.476;8.484;2022-07-29T11:46:13;100257.28;;;30.60;34.83
12949;BME280;6539;49.476;8.484;2022-07-29T11:48:43;100260.00;;;30.79;34.91
12949;BME280;6539;49.476;8.484;2022-07-29T11:51:12;100254.91;;;31.11;34.17
12949;BME280;6539;49.476;8.484;2022-07-29T11:53:39;100260.25;;;31.35;33.73
12949;BME280;6539;49.476;8.484;2022-07-29T11:56:08;100253.81;;;31.55;33.39
12949;BME280;6539;49.476;8.484;2022-07-29T11:58:36;100254.34;;;31.75;33.03
12949;BME280;6539;49.476;8.484;2022-07-29T12:01:06;100254.91;;;31.73;33.38
12949;BME280;6539;49.476;8.484;2022-07-29T12:03:33;100247.53;;;31.70;33.29
12949;BME280;6539;49.476;8.484;2022-07-29T12:06:00;100255.31;;;31.77;32.74
12949;BME280;6539;49.476;8.484;2022-07-29T12:08:28;100253.16;;;31.91;32.59
12949;BME280;6539;49.476;8.484;2022-07-29T12:10:57;100259.59;;;31.91;32.15
12949;BME280;6539;49.476;8.484;2022-07-29T12:13:38;100247.06;;;31.87;32.33
12949;BME280;6539;49.476;8.484;2022-07-29T12:16:04;100244.06;;;31.92;32.04
12949;BME280;6539;49.476;8.484;2022-07-29T12:18:32;100245.19;;;31.61;32.04
12949;BME280;6539;49.476;8.484;2022-07-29T12:21:02;100248.91;;;31.56;32.39
12949;BME280;6539;49.476;8.484;2022-07-29T12:23:32;100250.91;;;31.69;31.86
12949;BME280;6539;49.476;8.484;2022-07-29T12:26:03;100240.38;;;31.77;31.11
12949;BME280;6539;49.476;8.484;2022-07-29T12:28:39;100242.78;;;31.73;31.72
12949;BME280;6539;49.476;8.484;2022-07-29T12:31:14;100242.34;;;31.89;31.53
12949;BME280;6539;49.476;8.484;2022-07-29T12:33:40;100239.44;;;32.02;31.00
12949;BME280;6539;49.476;8.484;2022-07-29T12:36:07;100235.25;;;31.96;30.21
12949;BME280;6539;49.476;8.484;2022-07-29T12:38:36;100235.53;;;31.92;30.94
12949;BME280;6539;49.476;8.484;2022-07-29T12:41:12;100244.63;;;31.91;30.43
12949;BME280;6539;49.476;8.484;2022-07-29T12:43:52;100248.91;;;31.77;30.69
12949;BME280;6539;49.476;8.484;2022-07-29T12:46:17;100230.00;;;31.58;30.50
12949;BME280;6539;49.476;8.484;2022-07-29T12:48:43;100238.66;;;31.53;30.84
12949;BME280;6539;49.476;8.484;2022-07-29T12:51:11;100234.47;;;31.46;31.23
12949;BME280;6539;49.476;8.484;2022-07-29T12:54:14;100230.75;;;31.38;30.84
12949;BME280;6539;49.476;8.484;2022-07-29T12:56:44;100222.78;;;31.37;31.26
12949;BME280;6539;49.476;8.484;2022-07-29T12:59:19;100217.88;;;31.37;31.17
12949;BME280;6539;49.476;8.484;2022-07-29T13:01:47;100222.38;;;31.33;31.07
12949;BME280;6539;49.476;8.484;2022-07-29T13:07:07;100225.41;;;31.14;31.65
12949;BME280;6539;49.476;8.484;2022-07-29T13:09:44;100222.66;;;31.01;31.52
12949;BME280;6539;49.476;8.484;2022-07-29T13:12:14;100227.66;;;30.95;31.71
12949;BME280;6539;49.476;8.484;2022-07-29T13:14:43;100226.16;;;30.94;31.64
12949;BME280;6539;49.476;8.484;2022-07-29T13:20:04;100220.56;;;31.02;31.45
12949;BME280;6539;49.476;8.484;2022-07-29T13:22:38;100226.84;;;31.08;31.51
12949;BME280;6539;49.476;8.484;2022-07-29T13:25:04;100226.31;;;31.09;31.61
12949;BME280;6539;49.476;8.484;2022-07-29T13:27:38;100228.47;;;31.16;31.30
12949;BME280;6539;49.476;8.484;2022-07-29T13:30:13;100230.34;;;31.14;31.51
12949;BME280;6539;49.476;8.484;2022-07-29T13:32:41;100229.97;;;30.97;31.61
12949;BME280;6539;49.476;8.484;2022-07-29T13:35:08;100231.63;;;30.79;31.90
12949;BME280;6539;49.476;8.484;2022-07-29T13:37:37;100232.19;;;30.77;31.76
12949;BME280;6539;49.476;8.484;2022-07-29T13:40:07;100232.72;;;30.76;31.97
12949;BME280;6539;49.476;8.484;2022-07-29T13:42:34;100232.97;;;30.65;31.86
12949;BME280;6539;49.476;8.484;2022-07-29T13:45:01;100233.75;;;30.65;31.98
12949;BME280;6539;49.476;8.484;2022-07-29T13:47:30;100226.22;;;30.68;31.91
12949;BME280;6539;49.476;8.484;2022-07-29T13:49:58;100231.50;;;30.84;31.51
12949;BME280;6539;49.476;8.484;2022-07-29T13:52:24;100211.41;;;30.96;31.30